sensor_id;sensor_type;location;lat;lon;timestamp;temperature;humidity
36990;DHT22;22898;52.102;5.776;2023-04-01T00:01:46;17.00;99.90
36990;DHT22;22898;52.102;5.776;2023-04-01T00:04:12;17.10;99.90
36990;DHT22;22898;52.102;5.776;2023-04-01T00:06:37;17.20;99.90
36990;DHT22;22898;52.102;5.776;2023-04-01T00:09:03;17.20;99.90
36990;DHT22;22898;52.102;5.776;2023-04-01T00:11:28;17.10;99.90
36990;DHT22;22898;52.102;5.776;2023-04-01T00:13:54;17.00;99.90
36990;DHT22;22898;52.102;5.776;2023-04-01T00:16:20;16.80;99.90
36990;DHT22;22898;52.102;5.776;2023-04-01T00:18:46;16.70;99.90
36990;DHT22;22898;52.102;5.776;2023-04-01T00:21:13;16.70;99.90
36990;DHT22;22898;52.102;5.776;2023-04-01T00:23:38;16.60;99.90
36990;DHT22;22898;52.102;5.776;2023-04-01T00:26:04;16.50;99.90
36990;DHT22;22898;52.102;5.776;2023-04-01T00:28:31;16.50;99.90
36990;DHT22;22898;52.102;5.776;2023-04-01T00:30:56;16.60;99.90
36990;DHT22;22898;52.102;5.776;2023-04-01T00:33:22;16.40;99.90
36990;DHT22;22898;52.102;5.776;2023-04-01T00:35:47;16.40;99.90
36990;DHT22;22898;52.102;5.776;2023-04-01T00:38:14;16.50;99.90
36990;DHT22;22898;52.102;5.776;2023-04-01T00:40:44;16.60;99.90
36990;DHT22;22898;52.102;5.776;2023-04-01T00:43:16;16.70;99.90
36990;DHT22;22898;52.102;5.776;2023-04-01T00:45:45;16.70;99.90
36990;DHT22;22898;52.102;5.776;2023-04-01T00:48:15;16.70;99.90
36990;DHT22;22898;52.102;5.776;2023-04-01T00:50:54;17.00;99.90
36990;DHT22;22898;52.102;5.776;2023-04-01T00:53:21;17.20;99.90
36990;DHT22;22898;52.102;5.776;2023-04-01T00:55:54;17.20;99.90
36990;DHT22;22898;52.102;5.776;2023-04-01T00:58:24;17.20;99.90
36990;DHT22;22898;52.102;5.776;2023-04-01T01:00:52;17.50;99.90
36990;DHT22;22898;52.102;5.776;2023-04-01T01:03:18;17.70;99.90
36990;DHT22;22898;52.102;5.776;2023-04-01T01:11:14;17.60;99.90
36990;DHT22;22898;52.102;5.776;2023-04-01T01:13:52;17.60;99.90
36990;DHT22;22898;52.102;5.776;2023-04-01T01:16:26;17.20;99.90
36990;DHT22;22898;52.102;5.776;2023-04-01T01:27:12;15.60;99.90
36990;DHT22;22898;52.102;5.776;2023-04-01T01:38:00;14.70;99.90
36990;DHT22;22898;52.102;5.776;2023-04-01T01:40:29;15.10;99.90
36990;DHT22;22898;52.102;5.776;2023-04-01T01:43:00;14.80;99.90
36990;DHT22;22898;52.102;5.776;2023-04-01T01:45:30;14.80;99.90
36990;DHT22;22898;52.102;5.776;2023-04-01T01:47:57;14.70;99.90
36990;DHT22;22898;52.102;5.776;2023-04-01T01:50:25;14.60;99.90
36990;DHT22;22898;52.102;5.776;2023-04-01T01:53:09;14.70;99.90
36990;DHT22;22898;52.102;5.776;2023-04-01T01:55:38;14.10;99.90
36990;DHT22;22898;52.102;5.776;2023-04-01T01:58:40;14.60;99.90
36990;DHT22;22898;52.102;5.776;2023-04-01T02:01:15;14.60;99.90
36990;DHT22;22898;52.102;5.776;2023-04-01T02:03:42;14.20;99.90
36990;DHT22;22898;52.102;5.776;2023-04-01T02:06:11;13.80;99.90
36990;DHT22;22898;52.102;5.776;2023-04-01T02:09:16;14.20;99.90
36990;DHT22;22898;52.102;5.776;2023-04-01T02:11:59;13.40;99.90
36990;DHT22;22898;52.102;5.776;2023-04-01T02:14:26;13.50;99.90
36990;DHT22;22898;52.102;5.776;2023-04-01T02:17:06;13.90;99.90
36990;DHT22;22898;52.102;5.776;2023-04-01T02:19:38;14.20;99.90
36990;DHT22;22898;52.102;5.776;2023-04-01T02:22:11;14.30;99.90
36990;DHT22;22898;52.102;5.776;2023-04-01T02:24:38;14.20;99.90
36990;DHT22;22898;52.102;5.776;2023-04-01T02:27:05;14.20;99.90
36990;DHT22;22898;52.102;5.776;2023-04-01T02:29:30;14.20;99.90
36990;DHT22;22898;52.102;5.776;2023-04-01T02:31:56;14.40;99.90
36990;DHT22;22898;52.102;5.776;2023-04-01T02:34:24;14.70;99.90
36990;DHT22;22898;52.102;5.776;2023-04-01T02:36:50;14.90;99.90
36990;DHT22;22898;52.102;5.776;2023-04-01T02:39:16;15.30;99.90
36990;DHT22;22898;52.102;5.776;2023-04-01T02:41:44;15.40;99.90
36990;DHT22;22898;52.102;5.776;2023-04-01T02:44:12;15.60;99.90
36990;DHT22;22898;52.102;5.776;2023-04-01T02:46:38;15.70;99.90
36990;DHT22;22898;52.102;5.776;2023-04-01T02:49:04;15.50;99.90
36990;DHT22;22898;52.102;5.776;2023-04-01T02:51:30;15.30;99.90
36990;DHT22;22898;52.102;5.776;2023-04-01T02:53:55;15.30;99.90
36990;DHT22;22898;52.102;5.776;2023-04-01T02:56:21;15.70;99.90
36990;DHT22;22898;52.102;5.776;2023-04-01T02:58:47;15.80;99.90
36990;DHT22;22898;52.102;5.776;2023-04-01T03:01:13;15.80;99.90
36990;DHT22;22898;52.102;5.776;2023-04-01T03:03:38;15.80;99.90
36990;DHT22;22898;52.102;5.776;2023-04-01T03:06:09;15.90;99.90
36990;DHT22;22898;52.102;5.776;2023-04-01T03:08:35;15.90;99.90
36990;DHT22;22898;52.102;5.776;2023-04-01T03:11:01;15.80;99.90
36990;DHT22;22898;52.102;5.776;2023-04-01T03:13:27;15.60;99.90
36990;DHT22;22898;52.102;5.776;2023-04-01T03:15:52;15.50;99.90
36990;DHT22;22898;52.102;5.776;2023-04-01T03:18:18;15.40;99.90
36990;DHT22;22898;52.102;5.776;2023-04-01T03:20:44;15.20;99.90
36990;DHT22;22898;52.102;5.776;2023-04-01T03:23:10;15.20;99.90
36990;DHT22;22898;52.102;5.776;2023-04-01T03:25:36;14.50;99.90
36990;DHT22;22898;52.102;5.776;2023-04-01T03:28:01;14.70;99.90
36990;DHT22;22898;52.102;5.776;2023-04-01T03:30:27;14.50;99.90
36990;DHT22;22898;52.102;5.776;2023-04-01T03:32:55;14.70;99.90
36990;DHT22;22898;52.102;5.776;2023-04-01T03:35:20;15.10;99.90
36990;DHT22;22898;52.102;5.776;2023-04-01T03:37:46;15.40;99.90
36990;DHT22;22898;52.102;5.776;2023-04-01T03:40:12;15.50;99.90
36990;DHT22;22898;52.102;5.776;2023-04-01T03:42:38;15.80;99.90
36990;DHT22;22898;52.102;5.776;2023-04-01T03:45:04;16.00;99.90
36990;DHT22;22898;52.102;5.776;2023-04-01T03:47:30;15.70;99.90
36990;DHT22;22898;52.102;5.776;2023-04-01T03:49:56;15.70;99.90
36990;DHT22;22898;52.102;5.776;2023-04-01T03:52:21;15.70;99.90
36990;DHT22;22898;52.102;5.776;2023-04-01T03:54:47;16.00;99.90
36990;DHT22;22898;52.102;5.776;2023-04-01T03:57:13;15.60;99.90
36990;DHT22;22898;52.102;5.776;2023-04-01T03:59:38;15.60;99.90
36990;DHT22;22898;52.102;5.776;2023-04-01T04:02:04;15.70;99.90
36990;DHT22;22898;52.102;5.776;2023-04-01T04:04:30;15.60;99.90
36990;DHT22;22898;52.102;5.776;2023-04-01T04:06:56;15.60;99.90
36990;DHT22;22898;52.102;5.776;2023-04-01T04:09:22;15.70;99.90
36990;DHT22;22898;52.102;5.776;2023-04-01T04:11:49;15.90;99.90
36990;DHT22;22898;52.102;5.776;2023-04-01T04:14:14;16.30;99.90
36990;DHT22;22898;52.102;5.776;2023-04-01T04:16:40;16.10;99.90
36990;DHT22;22898;52.102;5.776;2023-04-01T04:19:05;16.10;99.90
36990;DHT22;22898;52.102;5.776;2023-04-01T04:21:31;16.20;99.90
36990;DHT22;22898;52.102;5.776;2023-04-01T04:23:58;16.40;99.90
36990;DHT22;22898;52.102;5.776;2023-04-01T04:26:24;15.90;99.90
36990;DHT22;22898;52.102;5.776;2023-04-01T04:28:51;15.40;99.90
36990;DHT22;22898;52.102;5.776;2023-04-01T04:31:24;14.80;99.90
36990;DHT22;22898;52.102;5.776;2023-04-01T04:33:51;14.60;99.90
36990;DHT22;22898;52.102;5.776;2023-04-01T04:36:17;14.60;99.90
36990;DHT22;22898;52.102;5.776;2023-04-01T04:38:43;14.80;99.90
36990;DHT22;22898;52.102;5.776;2023-04-01T04:41:16;14.80;99.90
36990;DHT22;22898;52.102;5.776;2023-04-01T04:43:49;14.20;99.90
36990;DHT22;22898;52.102;5.776;2023-04-01T04:46:15;14.30;99.90
36990;DHT22;22898;52.102;5.776;2023-04-01T04:48:41;14.40;99.90
36990;DHT22;22898;52.102;5.776;2023-04-01T04:51:06;14.90;99.90
36990;DHT22;22898;52.102;5.776;2023-04-01T04:53:32;15.20;99.90
36990;DHT22;22898;52.102;5.776;2023-04-01T04:55:57;15.10;99.90
36990;DHT22;22898;52.102;5.776;2023-04-01T04:58:23;15.30;99.90
36990;DHT22;22898;52.102;5.776;2023-04-01T05:00:49;15.20;99.90
36990;DHT22;22898;52.102;5.776;2023-04-01T05:03:14;15.10;99.90
36990;DHT22;22898;52.102;5.776;2023-04-01T05:05:48;15.00;99.90
36990;DHT22;22898;52.102;5.776;2023-04-01T05:08:13;14.90;99.90
36990;DHT22;22898;52.102;5.776;2023-04-01T05:10:39;14.90;99.90
36990;DHT22;22898;52.102;5.776;2023-04-01T05:13:05;15.10;99.90
36990;DHT22;22898;52.102;5.776;2023-04-01T05:15:30;15.30;99.90
36990;DHT22;22898;52.102;5.776;2023-04-01T05:17:56;15.40;99.90
36990;DHT22;22898;52.102;5.776;2023-04-01T05:20:21;15.70;99.90
36990;DHT22;22898;52.102;5.776;2023-04-01T05:22:47;15.70;99.90
36990;DHT22;22898;52.102;5.776;2023-04-01T05:25:12;15.60;99.90
36990;DHT22;22898;52.102;5.776;2023-04-01T05:27:38;15.20;99.90
36990;DHT22;22898;52.102;5.776;2023-04-01T05:30:05;14.70;99.90
36990;DHT22;22898;52.102;5.776;2023-04-01T05:32:31;14.50;99.90
36990;DHT22;22898;52.102;5.776;2023-04-01T05:34:57;14.00;99.90
36990;DHT22;22898;52.102;5.776;2023-04-01T05:37:22;13.90;99.90
36990;DHT22;22898;52.102;5.776;2023-04-01T05:39:48;14.00;99.90
36990;DHT22;22898;52.102;5.776;2023-04-01T05:42:13;13.60;99.90
36990;DHT22;22898;52.102;5.776;2023-04-01T05:44:42;13.40;99.90
36990;DHT22;22898;52.102;5.776;2023-04-01T05:47:07;13.10;99.90
36990;DHT22;22898;52.102;5.776;2023-04-01T05:49:34;13.30;99.90
36990;DHT22;22898;52.102;5.776;2023-04-01T05:51:59;13.80;99.90
36990;DHT22;22898;52.102;5.776;2023-04-01T05:54:25;13.50;99.90
36990;DHT22;22898;52.102;5.776;2023-04-01T05:56:50;13.50;99.90
36990;DHT22;22898;52.102;5.776;2023-04-01T05:59:16;13.90;99.90
36990;DHT22;22898;52.102;5.776;2023-04-01T06:01:42;14.00;99.90
36990;DHT22;22898;52.102;5.776;2023-04-01T06:04:14;13.90;99.90
36990;DHT22;22898;52.102;5.776;2023-04-01T06:06:41;13.80;99.90
36990;DHT22;22898;52.102;5.776;2023-04-01T06:09:24;14.20;99.90
36990;DHT22;22898;52.102;5.776;2023-04-01T06:12:07;14.40;99.90
36990;DHT22;22898;52.102;5.776;2023-04-01T06:23:33;14.80;99.90
36990;DHT22;22898;52.102;5.776;2023-04-01T06:45:58;15.80;99.90
36990;DHT22;22898;52.102;5.776;2023-04-01T06:51:30;15.80;99.90
36990;DHT22;22898;52.102;5.776;2023-04-01T06:54:04;15.60;99.90
36990;DHT22;22898;52.102;5.776;2023-04-01T06:56:32;14.80;99.90
36990;DHT22;22898;52.102;5.776;2023-04-01T06:59:02;14.80;99.90
36990;DHT22;22898;52.102;5.776;2023-04-01T07:01:40;14.90;99.90
36990;DHT22;22898;52.102;5.776;2023-04-01T07:04:16;15.10;99.90
36990;DHT22;22898;52.102;5.776;2023-04-01T07:09:26;14.70;99.90
36990;DHT22;22898;52.102;5.776;2023-04-01T07:11:56;14.30;99.90
36990;DHT22;22898;52.102;5.776;2023-04-01T07:14:30;14.50;99.90
36990;DHT22;22898;52.102;5.776;2023-04-01T07:19:37;14.70;99.90
36990;DHT22;22898;52.102;5.776;2023-04-01T07:22:21;14.90;99.90
36990;DHT22;22898;52.102;5.776;2023-04-01T07:24:50;15.20;99.90
36990;DHT22;22898;52.102;5.776;2023-04-01T07:27:16;15.00;99.90
36990;DHT22;22898;52.102;5.776;2023-04-01T07:29:41;15.20;99.90
36990;DHT22;22898;52.102;5.776;2023-04-01T07:32:32;15.20;99.90
36990;DHT22;22898;52.102;5.776;2023-04-01T07:35:23;15.40;99.90
36990;DHT22;22898;52.102;5.776;2023-04-01T07:40:52;15.30;99.90
36990;DHT22;22898;52.102;5.776;2023-04-01T07:43:35;15.00;99.90
36990;DHT22;22898;52.102;5.776;2023-04-01T07:51:59;14.80;99.90
36990;DHT22;22898;52.102;5.776;2023-04-01T07:54:53;15.10;99.90
36990;DHT22;22898;52.102;5.776;2023-04-01T07:57:38;15.40;99.90
36990;DHT22;22898;52.102;5.776;2023-04-01T08:00:16;15.60;99.90
36990;DHT22;22898;52.102;5.776;2023-04-01T08:02:48;15.30;99.90
36990;DHT22;22898;52.102;5.776;2023-04-01T08:05:31;15.20;99.90
36990;DHT22;22898;52.102;5.776;2023-04-01T08:10:39;14.70;99.90
36990;DHT22;22898;52.102;5.776;2023-04-01T08:13:38;14.30;99.90
36990;DHT22;22898;52.102;5.776;2023-04-01T08:16:20;14.00;99.90
36990;DHT22;22898;52.102;5.776;2023-04-01T08:21:42;13.90;99.90
36990;DHT22;22898;52.102;5.776;2023-04-01T08:26:56;13.90;99.90
36990;DHT22;22898;52.102;5.776;2023-04-01T08:29:48;14.00;99.90
36990;DHT22;22898;52.102;5.776;2023-04-01T08:32:24;14.10;99.90
36990;DHT22;22898;52.102;5.776;2023-04-01T08:35:21;14.30;99.90
36990;DHT22;22898;52.102;5.776;2023-04-01T08:37:44;14.00;99.90
36990;DHT22;22898;52.102;5.776;2023-04-01T08:48:56;14.10;99.90
36990;DHT22;22898;52.102;5.776;2023-04-01T08:57:44;13.80;99.90
36990;DHT22;22898;52.102;5.776;2023-04-01T09:06:12;13.90;99.90
36990;DHT22;22898;52.102;5.776;2023-04-01T09:19:59;14.30;99.90
36990;DHT22;22898;52.102;5.776;2023-04-01T09:22:50;14.30;99.90
36990;DHT22;22898;52.102;5.776;2023-04-01T09:27:58;13.40;99.90
36990;DHT22;22898;52.102;5.776;2023-04-01T09:30:54;13.40;99.90
36990;DHT22;22898;52.102;5.776;2023-04-01T09:39:12;13.80;99.90
36990;DHT22;22898;52.102;5.776;2023-04-01T09:45:00;14.80;99.90
36990;DHT22;22898;52.102;5.776;2023-04-01T09:48:09;14.80;99.90
36990;DHT22;22898;52.102;5.776;2023-04-01T10:02:26;14.80;99.90
36990;DHT22;22898;52.102;5.776;2023-04-01T10:10:34;15.10;99.90
36990;DHT22;22898;52.102;5.776;2023-04-01T10:13:30;14.90;99.90
36990;DHT22;22898;52.102;5.776;2023-04-01T10:24:41;15.70;99.90
36990;DHT22;22898;52.102;5.776;2023-04-01T10:41:14;14.90;99.90
36990;DHT22;22898;52.102;5.776;2023-04-01T10:56:15;13.60;99.90
36990;DHT22;22898;52.102;5.776;2023-04-01T11:01:45;13.10;99.90
36990;DHT22;22898;52.102;5.776;2023-04-01T11:04:41;13.50;99.90
36990;DHT22;22898;52.102;5.776;2023-04-01T11:07:50;14.00;99.90
36990;DHT22;22898;52.102;5.776;2023-04-01T11:27:55;13.00;99.90
36990;DHT22;22898;52.102;5.776;2023-04-01T11:30:40;13.50;99.90
36990;DHT22;22898;52.102;5.776;2023-04-01T11:33:31;13.90;99.90
36990;DHT22;22898;52.102;5.776;2023-04-01T11:36:09;14.30;99.90
36990;DHT22;22898;52.102;5.776;2023-04-01T11:38:47;14.50;99.90
36990;DHT22;22898;52.102;5.776;2023-04-01T11:46:44;14.60;99.90
36990;DHT22;22898;52.102;5.776;2023-04-01T11:49:53;14.60;99.90
36990;DHT22;22898;52.102;5.776;2023-04-01T11:55:42;14.30;99.90
36990;DHT22;22898;52.102;5.776;2023-04-01T12:00:59;14.40;99.90
36990;DHT22;22898;52.102;5.776;2023-04-01T12:04:18;14.40;99.90
36990;DHT22;22898;52.102;5.776;2023-04-01T12:07:53;15.10;99.90
36990;DHT22;22898;52.102;5.776;2023-04-01T12:13:04;15.20;99.90
36990;DHT22;22898;52.102;5.776;2023-04-01T12:18:50;14.90;99.90
36990;DHT22;22898;52.102;5.776;2023-04-01T12:32:44;14.10;99.90
36990;DHT22;22898;52.102;5.776;2023-04-01T12:35:43;14.10;99.90
36990;DHT22;22898;52.102;5.776;2023-04-01T12:38:36;14.20;99.90
36990;DHT22;22898;52.102;5.776;2023-04-01T12:54:56;14.60;99.90
36990;DHT22;22898;52.102;5.776;2023-04-01T13:06:26;15.30;99.90
36990;DHT22;22898;52.102;5.776;2023-04-01T13:09:10;14.90;99.90
36990;DHT22;22898;52.102;5.776;2023-04-01T13:23:16;15.90;99.90
36990;DHT22;22898;52.102;5.776;2023-04-01T13:28:32;15.90;99.90
36990;DHT22;22898;52.102;5.776;2023-04-01T13:31:31;16.00;99.90
36990;DHT22;22898;52.102;5.776;2023-04-01T13:34:18;15.90;99.90
36990;DHT22;22898;52.102;5.776;2023-04-01T13:37:08;15.80;99.90
36990;DHT22;22898;52.102;5.776;2023-04-01T13:45:34;15.70;99.90
36990;DHT22;22898;52.102;5.776;2023-04-01T13:48:26;16.10;99.90
36990;DHT22;22898;52.102;5.776;2023-04-01T13:59:35;17.80;99.90
36990;DHT22;22898;52.102;5.776;2023-04-01T14:02:14;17.80;99.90
36990;DHT22;22898;52.102;5.776;2023-04-01T14:13:41;17.20;99.90
36990;DHT22;22898;52.102;5.776;2023-04-01T14:16:26;17.50;99.90
36990;DHT22;22898;52.102;5.776;2023-04-01T14:22:15;18.60;99.90
36990;DHT22;22898;52.102;5.776;2023-04-01T14:24:45;18.90;99.90
36990;DHT22;22898;52.102;5.776;2023-04-01T14:27:31;19.20;99.90
36990;DHT22;22898;52.102;5.776;2023-04-01T14:33:05;19.10;99.90
36990;DHT22;22898;52.102;5.776;2023-04-01T14:35:38;19.00;99.90
36990;DHT22;22898;52.102;5.776;2023-04-01T14:46:42;18.60;99.90
36990;DHT22;22898;52.102;5.776;2023-04-01T14:49:36;18.70;99.90
36990;DHT22;22898;52.102;5.776;2023-04-01T14:52:32;18.60;99.90
36990;DHT22;22898;52.102;5.776;2023-04-01T14:55:18;18.50;99.90
36990;DHT22;22898;52.102;5.776;2023-04-01T14:57:59;17.90;99.90
36990;DHT22;22898;52.102;5.776;2023-04-01T15:00:25;17.20;99.90
36990;DHT22;22898;52.102;5.776;2023-04-01T15:03:14;16.60;99.90
36990;DHT22;22898;52.102;5.776;2023-04-01T15:05:49;16.20;99.90
36990;DHT22;22898;52.102;5.776;2023-04-01T15:14:22;16.30;99.90
36990;DHT22;22898;52.102;5.776;2023-04-01T15:31:22;16.30;99.90
36990;DHT22;22898;52.102;5.776;2023-04-01T15:37:06;15.90;99.90
36990;DHT22;22898;52.102;5.776;2023-04-01T15:39:55;15.80;99.90
36990;DHT22;22898;52.102;5.776;2023-04-01T15:56:16;15.50;99.90
36990;DHT22;22898;52.102;5.776;2023-04-01T16:01:51;15.90;99.90
36990;DHT22;22898;52.102;5.776;2023-04-01T16:10:24;15.60;99.90
36990;DHT22;22898;52.102;5.776;2023-04-01T16:16:34;15.50;99.90
36990;DHT22;22898;52.102;5.776;2023-04-01T16:21:51;15.80;99.90
36990;DHT22;22898;52.102;5.776;2023-04-01T16:27:18;15.80;99.90
36990;DHT22;22898;52.102;5.776;2023-04-01T16:33:13;15.00;99.90
36990;DHT22;22898;52.102;5.776;2023-04-01T16:38:25;14.90;99.90
36990;DHT22;22898;52.102;5.776;2023-04-01T16:52:15;15.10;99.90
36990;DHT22;22898;52.102;5.776;2023-04-01T16:55:14;15.00;99.90
36990;DHT22;22898;52.102;5.776;2023-04-01T16:57:51;14.80;99.90
36990;DHT22;22898;52.102;5.776;2023-04-01T17:00:58;14.60;99.90
36990;DHT22;22898;52.102;5.776;2023-04-01T17:03:32;14.40;99.90
36990;DHT22;22898;52.102;5.776;2023-04-01T17:12:05;14.40;99.90
36990;DHT22;22898;52.102;5.776;2023-04-01T17:14:52;14.70;99.90
36990;DHT22;22898;52.102;5.776;2023-04-01T17:17:45;14.50;99.90
36990;DHT22;22898;52.102;5.776;2023-04-01T17:20:34;14.60;99.90
36990;DHT22;22898;52.102;5.776;2023-04-01T17:43:26;14.70;99.90
36990;DHT22;22898;52.102;5.776;2023-04-01T17:46:02;14.30;99.90
36990;DHT22;22898;52.102;5.776;2023-04-01T17:51:40;13.90;99.90
36990;DHT22;22898;52.102;5.776;2023-04-01T18:02:53;14.20;99.90
36990;DHT22;22898;52.102;5.776;2023-04-01T18:19:50;13.90;99.90
36990;DHT22;22898;52.102;5.776;2023-04-01T18:22:25;13.70;99.90
36990;DHT22;22898;52.102;5.776;2023-04-01T18:25:01;13.60;99.90
36990;DHT22;22898;52.102;5.776;2023-04-01T18:27:36;13.50;99.90
36990;DHT22;22898;52.102;5.776;2023-04-01T18:35:47;13.20;99.90
36990;DHT22;22898;52.102;5.776;2023-04-01T18:38:28;13.50;99.90
36990;DHT22;22898;52.102;5.776;2023-04-01T18:46:52;13.30;99.90
36990;DHT22;22898;52.102;5.776;2023-04-01T18:49:48;13.20;99.90
36990;DHT22;22898;52.102;5.776;2023-04-01T18:52:25;13.20;99.90
36990;DHT22;22898;52.102;5.776;2023-04-01T18:57:51;13.70;99.90
36990;DHT22;22898;52.102;5.776;2023-04-01T19:00:26;13.90;99.90
36990;DHT22;22898;52.102;5.776;2023-04-01T19:03:02;13.90;99.90
36990;DHT22;22898;52.102;5.776;2023-04-01T19:05:38;14.30;99.90
36990;DHT22;22898;52.102;5.776;2023-04-01T19:08:31;14.40;99.90
36990;DHT22;22898;52.102;5.776;2023-04-01T19:11:11;14.00;99.90
36990;DHT22;22898;52.102;5.776;2023-04-01T19:19:11;13.40;99.90
36990;DHT22;22898;52.102;5.776;2023-04-01T19:35:47;12.90;99.90
36990;DHT22;22898;52.102;5.776;2023-04-01T19:38:39;12.70;99.90
36990;DHT22;22898;52.102;5.776;2023-04-01T19:43:44;12.60;99.90
36990;DHT22;22898;52.102;5.776;2023-04-01T19:46:48;12.50;99.90
36990;DHT22;22898;52.102;5.776;2023-04-01T19:52:28;12.60;99.90
36990;DHT22;22898;52.102;5.776;2023-04-01T20:00:56;12.60;99.90
36990;DHT22;22898;52.102;5.776;2023-04-01T20:11:32;12.80;99.90
36990;DHT22;22898;52.102;5.776;2023-04-01T20:14:15;12.80;99.90
36990;DHT22;22898;52.102;5.776;2023-04-01T20:16:48;12.80;99.90
36990;DHT22;22898;52.102;5.776;2023-04-01T20:19:27;12.70;99.90
36990;DHT22;22898;52.102;5.776;2023-04-01T20:21:57;12.50;99.90
36990;DHT22;22898;52.102;5.776;2023-04-01T20:24:29;12.40;99.90
36990;DHT22;22898;52.102;5.776;2023-04-01T20:29:56;12.20;99.90
36990;DHT22;22898;52.102;5.776;2023-04-01T20:32:45;12.10;99.90
36990;DHT22;22898;52.102;5.776;2023-04-01T20:38:18;11.90;99.90
36990;DHT22;22898;52.102;5.776;2023-04-01T20:40:50;11.90;99.90
36990;DHT22;22898;52.102;5.776;2023-04-01T20:45:58;11.80;99.90
36990;DHT22;22898;52.102;5.776;2023-04-01T20:49:15;12.00;99.90
36990;DHT22;22898;52.102;5.776;2023-04-01T20:51:38;12.10;99.90
36990;DHT22;22898;52.102;5.776;2023-04-01T20:57:27;11.90;99.90
36990;DHT22;22898;52.102;5.776;2023-04-01T21:11:10;11.90;99.90
36990;DHT22;22898;52.102;5.776;2023-04-01T21:16:44;12.30;99.90
36990;DHT22;22898;52.102;5.776;2023-04-01T21:19:40;12.10;99.90
36990;DHT22;22898;52.102;5.776;2023-04-01T21:28:05;11.80;99.90
36990;DHT22;22898;52.102;5.776;2023-04-01T21:34:00;12.10;99.90
36990;DHT22;22898;52.102;5.776;2023-04-01T21:36:49;12.30;99.90
36990;DHT22;22898;52.102;5.776;2023-04-01T21:57:12;10.90;99.90
36990;DHT22;22898;52.102;5.776;2023-04-01T22:00:42;11.20;99.90
36990;DHT22;22898;52.102;5.776;2023-04-01T22:03:25;11.20;99.90
36990;DHT22;22898;52.102;5.776;2023-04-01T22:09:00;11.50;99.90
36990;DHT22;22898;52.102;5.776;2023-04-01T22:14:02;11.00;99.90
36990;DHT22;22898;52.102;5.776;2023-04-01T22:27:58;11.30;99.90
36990;DHT22;22898;52.102;5.776;2023-04-01T22:30:36;11.40;99.90
36990;DHT22;22898;52.102;5.776;2023-04-01T22:33:34;11.70;99.90
36990;DHT22;22898;52.102;5.776;2023-04-01T22:47:33;10.80;99.90
36990;DHT22;22898;52.102;5.776;2023-04-01T22:50:31;11.10;99.90
36990;DHT22;22898;52.102;5.776;2023-04-01T22:55:52;11.10;99.90
36990;DHT22;22898;52.102;5.776;2023-04-01T22:58:25;10.60;99.90
36990;DHT22;22898;52.102;5.776;2023-04-01T23:01:01;10.40;99.90
36990;DHT22;22898;52.102;5.776;2023-04-01T23:03:31;10.30;99.90
36990;DHT22;22898;52.102;5.776;2023-04-01T23:05:59;10.20;99.90
36990;DHT22;22898;52.102;5.776;2023-04-01T23:11:37;10.60;99.90
36990;DHT22;22898;52.102;5.776;2023-04-01T23:16:52;10.70;99.90
36990;DHT22;22898;52.102;5.776;2023-04-01T23:19:24;10.60;99.90
36990;DHT22;22898;52.102;5.776;2023-04-01T23:22:25;10.60;99.90
36990;DHT22;22898;52.102;5.776;2023-04-01T23:24:59;10.50;99.90
36990;DHT22;22898;52.102;5.776;2023-04-01T23:27:39;10.50;99.90
36990;DHT22;22898;52.102;5.776;2023-04-01T23:33:34;10.60;99.90
36990;DHT22;22898;52.102;5.776;2023-04-01T23:36:19;11.00;99.90
36990;DHT22;22898;52.102;5.776;2023-04-01T23:38:48;11.30;99.90
36990;DHT22;22898;52.102;5.776;2023-04-01T23:41:27;11.10;99.90
36990;DHT22;22898;52.102;5.776;2023-04-01T23:44:05;11.00;99.90
36990;DHT22;22898;52.102;5.776;2023-04-01T23:46:33;11.10;99.90
36990;DHT22;22898;52.102;5.776;2023-04-01T23:49:01;11.10;99.90
36990;DHT22;22898;52.102;5.776;2023-04-01T23:51:35;11.10;99.90
36990;DHT22;22898;52.102;5.776;2023-04-01T23:54:17;10.80;99.90
36990;DHT22;22898;52.102;5.776;2023-04-01T23:56:54;10.30;99.90
36990;DHT22;22898;52.102;5.776;2023-04-01T23:59:39;10.50;99.90
